sensor_id;sensor_type;location;lat;lon;timestamp;temperature;humidity
10451;DHT22;5273;51.290;6.918;2023-06-19T00:02:01;22.60;64.20
10451;DHT22;5273;51.290;6.918;2023-06-19T00:04:28;22.60;64.20
10451;DHT22;5273;51.290;6.918;2023-06-19T00:06:55;22.50;63.90
10451;DHT22;5273;51.290;6.918;2023-06-19T00:09:22;22.60;64.30
10451;DHT22;5273;51.290;6.918;2023-06-19T00:11:50;22.50;64.40
10451;DHT22;5273;51.290;6.918;2023-06-19T00:14:17;22.40;64.70
10451;DHT22;5273;51.290;6.918;2023-06-19T00:16:44;22.40;64.90
10451;DHT22;5273;51.290;6.918;2023-06-19T00:19:11;22.30;65.20
10451;DHT22;5273;51.290;6.918;2023-06-19T00:21:38;22.30;65.40
10451;DHT22;5273;51.290;6.918;2023-06-19T00:24:05;22.30;65.60
10451;DHT22;5273;51.290;6.918;2023-06-19T00:26:32;22.20;65.80
10451;DHT22;5273;51.290;6.918;2023-06-19T00:29:00;22.20;66.10
10451;DHT22;5273;51.290;6.918;2023-06-19T00:31:27;22.10;66.10
10451;DHT22;5273;51.290;6.918;2023-06-19T00:33:54;22.10;66.30
10451;DHT22;5273;51.290;6.918;2023-06-19T00:36:21;22.00;66.50
10451;DHT22;5273;51.290;6.918;2023-06-19T00:38:51;22.00;66.90
10451;DHT22;5273;51.290;6.918;2023-06-19T00:41:18;22.00;67.10
10451;DHT22;5273;51.290;6.918;2023-06-19T00:43:57;22.00;67.10
10451;DHT22;5273;51.290;6.918;2023-06-19T00:46:25;21.90;67.20
10451;DHT22;5273;51.290;6.918;2023-06-19T00:48:52;21.90;67.40
10451;DHT22;5273;51.290;6.918;2023-06-19T00:51:18;21.80;67.60
10451;DHT22;5273;51.290;6.918;2023-06-19T00:53:45;21.80;67.60
10451;DHT22;5273;51.290;6.918;2023-06-19T00:56:12;21.80;67.60
10451;DHT22;5273;51.290;6.918;2023-06-19T00:58:41;21.80;68.50
10451;DHT22;5273;51.290;6.918;2023-06-19T01:01:08;21.80;67.60
10451;DHT22;5273;51.290;6.918;2023-06-19T01:03:36;21.80;67.60
10451;DHT22;5273;51.290;6.918;2023-06-19T01:06:06;21.80;67.60
10451;DHT22;5273;51.290;6.918;2023-06-19T01:08:46;21.80;68.00
10451;DHT22;5273;51.290;6.918;2023-06-19T01:11:18;21.80;68.20
10451;DHT22;5273;51.290;6.918;2023-06-19T01:13:50;21.70;68.30
10451;DHT22;5273;51.290;6.918;2023-06-19T01:16:20;21.70;68.30
10451;DHT22;5273;51.290;6.918;2023-06-19T01:18:50;21.70;68.70
10451;DHT22;5273;51.290;6.918;2023-06-19T01:21:18;21.70;68.90
10451;DHT22;5273;51.290;6.918;2023-06-19T01:23:46;21.60;69.30
10451;DHT22;5273;51.290;6.918;2023-06-19T01:26:13;21.60;69.30
10451;DHT22;5273;51.290;6.918;2023-06-19T01:28:41;21.60;70.00
10451;DHT22;5273;51.290;6.918;2023-06-19T01:31:12;21.60;69.20
10451;DHT22;5273;51.290;6.918;2023-06-19T01:33:40;21.60;69.30
10451;DHT22;5273;51.290;6.918;2023-06-19T01:36:09;21.60;69.30
10451;DHT22;5273;51.290;6.918;2023-06-19T01:38:38;21.60;69.30
10451;DHT22;5273;51.290;6.918;2023-06-19T01:41:08;21.50;69.30
10451;DHT22;5273;51.290;6.918;2023-06-19T01:43:36;21.50;69.20
10451;DHT22;5273;51.290;6.918;2023-06-19T01:46:03;21.60;69.10
10451;DHT22;5273;51.290;6.918;2023-06-19T01:48:30;21.60;69.00
10451;DHT22;5273;51.290;6.918;2023-06-19T01:50:57;21.60;69.10
10451;DHT22;5273;51.290;6.918;2023-06-19T01:53:24;21.60;69.30
10451;DHT22;5273;51.290;6.918;2023-06-19T01:55:51;21.60;69.60
10451;DHT22;5273;51.290;6.918;2023-06-19T01:58:19;21.50;69.50
10451;DHT22;5273;51.290;6.918;2023-06-19T02:00:46;21.50;69.90
10451;DHT22;5273;51.290;6.918;2023-06-19T02:03:13;21.40;70.10
10451;DHT22;5273;51.290;6.918;2023-06-19T02:05:40;21.40;70.60
10451;DHT22;5273;51.290;6.918;2023-06-19T02:08:07;21.30;71.10
10451;DHT22;5273;51.290;6.918;2023-06-19T02:10:34;21.20;71.40
10451;DHT22;5273;51.290;6.918;2023-06-19T02:13:00;21.10;72.00
10451;DHT22;5273;51.290;6.918;2023-06-19T02:15:29;21.10;72.70
10451;DHT22;5273;51.290;6.918;2023-06-19T02:17:55;21.00;73.00
10451;DHT22;5273;51.290;6.918;2023-06-19T02:20:23;21.00;73.40
10451;DHT22;5273;51.290;6.918;2023-06-19T02:22:51;21.00;73.80
10451;DHT22;5273;51.290;6.918;2023-06-19T02:25:18;21.10;73.90
10451;DHT22;5273;51.290;6.918;2023-06-19T02:27:45;21.10;74.20
10451;DHT22;5273;51.290;6.918;2023-06-19T02:30:12;21.10;74.50
10451;DHT22;5273;51.290;6.918;2023-06-19T02:32:41;21.10;74.40
10451;DHT22;5273;51.290;6.918;2023-06-19T02:35:09;21.10;74.60
10451;DHT22;5273;51.290;6.918;2023-06-19T02:37:37;21.10;74.90
10451;DHT22;5273;51.290;6.918;2023-06-19T02:40:04;21.10;74.90
10451;DHT22;5273;51.290;6.918;2023-06-19T02:42:31;21.20;75.10
10451;DHT22;5273;51.290;6.918;2023-06-19T02:44:58;21.20;75.30
10451;DHT22;5273;51.290;6.918;2023-06-19T02:47:28;21.20;75.30
10451;DHT22;5273;51.290;6.918;2023-06-19T02:49:57;21.30;75.10
10451;DHT22;5273;51.290;6.918;2023-06-19T02:52:24;21.30;75.00
10451;DHT22;5273;51.290;6.918;2023-06-19T02:54:50;21.40;75.30
10451;DHT22;5273;51.290;6.918;2023-06-19T02:57:17;21.40;75.10
10451;DHT22;5273;51.290;6.918;2023-06-19T02:59:44;21.40;74.90
10451;DHT22;5273;51.290;6.918;2023-06-19T03:02:12;21.50;75.00
10451;DHT22;5273;51.290;6.918;2023-06-19T03:04:39;21.50;75.00
10451;DHT22;5273;51.290;6.918;2023-06-19T03:07:08;21.50;75.00
10451;DHT22;5273;51.290;6.918;2023-06-19T03:09:36;21.60;75.40
10451;DHT22;5273;51.290;6.918;2023-06-19T03:12:03;21.60;75.10
10451;DHT22;5273;51.290;6.918;2023-06-19T03:14:30;21.70;75.20
10451;DHT22;5273;51.290;6.918;2023-06-19T03:16:56;21.60;75.10
10451;DHT22;5273;51.290;6.918;2023-06-19T03:19:23;21.60;75.10
10451;DHT22;5273;51.290;6.918;2023-06-19T03:21:50;21.60;75.20
10451;DHT22;5273;51.290;6.918;2023-06-19T03:24:18;21.60;75.50
10451;DHT22;5273;51.290;6.918;2023-06-19T03:26:45;21.60;75.80
10451;DHT22;5273;51.290;6.918;2023-06-19T03:29:12;21.50;76.00
10451;DHT22;5273;51.290;6.918;2023-06-19T03:31:39;21.50;76.40
10451;DHT22;5273;51.290;6.918;2023-06-19T03:34:06;21.50;76.70
10451;DHT22;5273;51.290;6.918;2023-06-19T03:36:33;21.40;76.80
10451;DHT22;5273;51.290;6.918;2023-06-19T03:38:59;21.40;77.30
10451;DHT22;5273;51.290;6.918;2023-06-19T03:41:28;21.40;78.00
10451;DHT22;5273;51.290;6.918;2023-06-19T03:43:54;21.30;78.70
10451;DHT22;5273;51.290;6.918;2023-06-19T03:46:21;21.30;79.00
10451;DHT22;5273;51.290;6.918;2023-06-19T03:48:48;21.30;79.40
10451;DHT22;5273;51.290;6.918;2023-06-19T03:51:15;21.20;79.70
10451;DHT22;5273;51.290;6.918;2023-06-19T03:53:42;21.30;80.10
10451;DHT22;5273;51.290;6.918;2023-06-19T03:56:08;21.30;80.20
10451;DHT22;5273;51.290;6.918;2023-06-19T03:58:36;21.30;80.70
10451;DHT22;5273;51.290;6.918;2023-06-19T04:01:03;21.30;80.90
10451;DHT22;5273;51.290;6.918;2023-06-19T04:03:31;21.20;81.10
10451;DHT22;5273;51.290;6.918;2023-06-19T04:05:57;21.20;81.40
10451;DHT22;5273;51.290;6.918;2023-06-19T04:08:24;21.30;81.80
10451;DHT22;5273;51.290;6.918;2023-06-19T04:10:51;21.20;81.70
10451;DHT22;5273;51.290;6.918;2023-06-19T04:13:18;21.30;82.50
10451;DHT22;5273;51.290;6.918;2023-06-19T04:15:46;21.30;82.50
10451;DHT22;5273;51.290;6.918;2023-06-19T04:18:13;21.30;83.00
10451;DHT22;5273;51.290;6.918;2023-06-19T04:20:40;21.30;83.30
10451;DHT22;5273;51.290;6.918;2023-06-19T04:23:07;21.30;83.60
10451;DHT22;5273;51.290;6.918;2023-06-19T04:25:34;21.20;84.10
10451;DHT22;5273;51.290;6.918;2023-06-19T04:28:01;21.20;84.20
10451;DHT22;5273;51.290;6.918;2023-06-19T04:30:29;21.20;84.80
10451;DHT22;5273;51.290;6.918;2023-06-19T04:32:57;21.20;85.00
10451;DHT22;5273;51.290;6.918;2023-06-19T04:35:24;21.10;85.40
10451;DHT22;5273;51.290;6.918;2023-06-19T04:37:50;21.10;86.00
10451;DHT22;5273;51.290;6.918;2023-06-19T04:40:17;21.10;86.50
10451;DHT22;5273;51.290;6.918;2023-06-19T04:42:44;21.10;86.80
10451;DHT22;5273;51.290;6.918;2023-06-19T04:45:11;21.10;87.10
10451;DHT22;5273;51.290;6.918;2023-06-19T04:47:37;21.10;87.70
10451;DHT22;5273;51.290;6.918;2023-06-19T04:50:07;21.10;87.90
10451;DHT22;5273;51.290;6.918;2023-06-19T04:52:34;21.10;87.90
10451;DHT22;5273;51.290;6.918;2023-06-19T04:55:01;21.10;88.10
10451;DHT22;5273;51.290;6.918;2023-06-19T04:57:28;21.10;88.20
10451;DHT22;5273;51.290;6.918;2023-06-19T04:59:54;21.20;88.70
10451;DHT22;5273;51.290;6.918;2023-06-19T05:02:21;21.20;88.70
10451;DHT22;5273;51.290;6.918;2023-06-19T05:04:49;21.30;88.60
10451;DHT22;5273;51.290;6.918;2023-06-19T05:07:17;21.30;88.90
10451;DHT22;5273;51.290;6.918;2023-06-19T05:09:44;21.40;88.40
10451;DHT22;5273;51.290;6.918;2023-06-19T05:12:11;21.40;88.40
10451;DHT22;5273;51.290;6.918;2023-06-19T05:14:38;21.40;88.30
10451;DHT22;5273;51.290;6.918;2023-06-19T05:17:05;21.40;88.30
10451;DHT22;5273;51.290;6.918;2023-06-19T05:19:32;21.40;88.90
10451;DHT22;5273;51.290;6.918;2023-06-19T05:21:59;21.40;89.20
10451;DHT22;5273;51.290;6.918;2023-06-19T05:24:27;21.40;89.20
10451;DHT22;5273;51.290;6.918;2023-06-19T05:26:54;21.50;89.40
10451;DHT22;5273;51.290;6.918;2023-06-19T05:29:21;21.50;90.00
10451;DHT22;5273;51.290;6.918;2023-06-19T05:31:48;21.60;89.80
10451;DHT22;5273;51.290;6.918;2023-06-19T05:34:14;21.60;89.30
10451;DHT22;5273;51.290;6.918;2023-06-19T05:36:41;21.60;89.30
10451;DHT22;5273;51.290;6.918;2023-06-19T05:39:12;21.70;89.70
10451;DHT22;5273;51.290;6.918;2023-06-19T05:41:41;21.80;89.80
10451;DHT22;5273;51.290;6.918;2023-06-19T05:44:11;21.90;89.40
10451;DHT22;5273;51.290;6.918;2023-06-19T05:46:40;22.00;89.00
10451;DHT22;5273;51.290;6.918;2023-06-19T05:49:07;22.10;88.50
10451;DHT22;5273;51.290;6.918;2023-06-19T05:51:34;22.20;88.30
10451;DHT22;5273;51.290;6.918;2023-06-19T05:54:01;22.40;88.30
10451;DHT22;5273;51.290;6.918;2023-06-19T05:56:29;22.50;88.20
10451;DHT22;5273;51.290;6.918;2023-06-19T05:58:57;22.70;87.00
10451;DHT22;5273;51.290;6.918;2023-06-19T06:01:24;22.80;86.40
10451;DHT22;5273;51.290;6.918;2023-06-19T06:03:53;22.90;86.00
10451;DHT22;5273;51.290;6.918;2023-06-19T06:06:20;23.00;85.80
10451;DHT22;5273;51.290;6.918;2023-06-19T06:08:47;23.10;85.20
10451;DHT22;5273;51.290;6.918;2023-06-19T06:11:14;23.10;84.10
10451;DHT22;5273;51.290;6.918;2023-06-19T06:13:40;23.10;83.70
10451;DHT22;5273;51.290;6.918;2023-06-19T06:16:09;23.10;82.90
10451;DHT22;5273;51.290;6.918;2023-06-19T06:18:36;23.00;83.30
10451;DHT22;5273;51.290;6.918;2023-06-19T06:21:03;23.00;83.00
10451;DHT22;5273;51.290;6.918;2023-06-19T06:23:30;23.00;83.10
10451;DHT22;5273;51.290;6.918;2023-06-19T06:25:57;23.00;83.50
10451;DHT22;5273;51.290;6.918;2023-06-19T06:28:27;23.10;84.20
10451;DHT22;5273;51.290;6.918;2023-06-19T06:30:54;23.10;83.50
10451;DHT22;5273;51.290;6.918;2023-06-19T06:33:23;23.10;83.90
10451;DHT22;5273;51.290;6.918;2023-06-19T06:35:50;23.20;83.20
10451;DHT22;5273;51.290;6.918;2023-06-19T06:38:17;23.20;83.10
10451;DHT22;5273;51.290;6.918;2023-06-19T06:40:44;23.20;83.20
10451;DHT22;5273;51.290;6.918;2023-06-19T06:43:11;23.20;82.80
10451;DHT22;5273;51.290;6.918;2023-06-19T06:45:38;23.10;83.00
10451;DHT22;5273;51.290;6.918;2023-06-19T06:48:07;23.10;83.90
10451;DHT22;5273;51.290;6.918;2023-06-19T06:50:35;23.10;82.70
10451;DHT22;5273;51.290;6.918;2023-06-19T06:53:02;23.10;83.00
10451;DHT22;5273;51.290;6.918;2023-06-19T06:55:29;23.10;83.00
10451;DHT22;5273;51.290;6.918;2023-06-19T06:57:56;23.10;82.80
10451;DHT22;5273;51.290;6.918;2023-06-19T07:00:22;23.00;83.10
10451;DHT22;5273;51.290;6.918;2023-06-19T07:02:49;23.10;83.40
10451;DHT22;5273;51.290;6.918;2023-06-19T07:05:17;23.00;83.40
10451;DHT22;5273;51.290;6.918;2023-06-19T07:07:45;23.00;84.20
10451;DHT22;5273;51.290;6.918;2023-06-19T07:10:12;23.00;84.80
10451;DHT22;5273;51.290;6.918;2023-06-19T07:12:46;22.90;84.50
10451;DHT22;5273;51.290;6.918;2023-06-19T07:15:13;22.90;84.50
10451;DHT22;5273;51.290;6.918;2023-06-19T07:17:39;22.90;84.50
10451;DHT22;5273;51.290;6.918;2023-06-19T07:20:07;22.80;84.80
10451;DHT22;5273;51.290;6.918;2023-06-19T07:22:34;22.80;84.70
10451;DHT22;5273;51.290;6.918;2023-06-19T07:25:03;22.80;85.40
10451;DHT22;5273;51.290;6.918;2023-06-19T07:27:30;22.80;85.50
10451;DHT22;5273;51.290;6.918;2023-06-19T07:29:57;22.70;85.30
10451;DHT22;5273;51.290;6.918;2023-06-19T07:32:24;22.70;85.70
10451;DHT22;5273;51.290;6.918;2023-06-19T07:34:51;22.70;86.30
10451;DHT22;5273;51.290;6.918;2023-06-19T07:37:18;22.80;87.00
10451;DHT22;5273;51.290;6.918;2023-06-19T07:39:45;23.00;86.00
10451;DHT22;5273;51.290;6.918;2023-06-19T07:42:14;23.10;85.20
10451;DHT22;5273;51.290;6.918;2023-06-19T07:44:41;23.30;84.20
10451;DHT22;5273;51.290;6.918;2023-06-19T07:47:08;23.50;83.30
10451;DHT22;5273;51.290;6.918;2023-06-19T07:49:35;23.70;81.80
10451;DHT22;5273;51.290;6.918;2023-06-19T07:52:02;23.80;81.10
10451;DHT22;5273;51.290;6.918;2023-06-19T07:54:29;23.80;81.30
10451;DHT22;5273;51.290;6.918;2023-06-19T07:56:56;23.70;81.20
10451;DHT22;5273;51.290;6.918;2023-06-19T07:59:24;23.60;82.20
10451;DHT22;5273;51.290;6.918;2023-06-19T08:01:51;23.40;84.00
10451;DHT22;5273;51.290;6.918;2023-06-19T08:04:18;23.10;85.40
10451;DHT22;5273;51.290;6.918;2023-06-19T08:06:45;22.90;87.00
10451;DHT22;5273;51.290;6.918;2023-06-19T08:09:12;22.70;87.90
10451;DHT22;5273;51.290;6.918;2023-06-19T08:11:39;22.60;88.90
10451;DHT22;5273;51.290;6.918;2023-06-19T08:14:05;22.60;89.10
10451;DHT22;5273;51.290;6.918;2023-06-19T08:16:34;22.80;89.90
10451;DHT22;5273;51.290;6.918;2023-06-19T08:19:00;23.00;89.60
10451;DHT22;5273;51.290;6.918;2023-06-19T08:21:27;23.30;89.50
10451;DHT22;5273;51.290;6.918;2023-06-19T08:23:55;24.10;88.80
10451;DHT22;5273;51.290;6.918;2023-06-19T08:26:22;25.10;83.70
10451;DHT22;5273;51.290;6.918;2023-06-19T08:28:49;26.00;77.50
10451;DHT22;5273;51.290;6.918;2023-06-19T08:31:15;26.70;74.30
10451;DHT22;5273;51.290;6.918;2023-06-19T08:33:46;27.50;72.20
10451;DHT22;5273;51.290;6.918;2023-06-19T08:36:14;28.10;66.80
10451;DHT22;5273;51.290;6.918;2023-06-19T08:38:40;28.50;64.30
10451;DHT22;5273;51.290;6.918;2023-06-19T08:41:07;28.90;62.70
10451;DHT22;5273;51.290;6.918;2023-06-19T08:43:34;29.50;60.40
10451;DHT22;5273;51.290;6.918;2023-06-19T08:46:09;29.90;60.00
10451;DHT22;5273;51.290;6.918;2023-06-19T08:48:37;30.20;59.00
10451;DHT22;5273;51.290;6.918;2023-06-19T08:51:05;30.40;57.90
10451;DHT22;5273;51.290;6.918;2023-06-19T08:53:35;30.50;57.20
10451;DHT22;5273;51.290;6.918;2023-06-19T08:56:02;30.50;57.00
10451;DHT22;5273;51.290;6.918;2023-06-19T08:58:29;30.50;56.60
10451;DHT22;5273;51.290;6.918;2023-06-19T09:00:58;30.40;55.70
10451;DHT22;5273;51.290;6.918;2023-06-19T09:03:25;30.10;56.50
10451;DHT22;5273;51.290;6.918;2023-06-19T09:05:51;30.00;56.80
10451;DHT22;5273;51.290;6.918;2023-06-19T09:08:21;30.30;55.80
10451;DHT22;5273;51.290;6.918;2023-06-19T09:10:56;31.00;55.80
10451;DHT22;5273;51.290;6.918;2023-06-19T09:13:23;31.60;53.60
10451;DHT22;5273;51.290;6.918;2023-06-19T09:15:57;32.30;53.00
10451;DHT22;5273;51.290;6.918;2023-06-19T09:18:26;32.80;50.20
10451;DHT22;5273;51.290;6.918;2023-06-19T09:20:53;32.60;49.00
10451;DHT22;5273;51.290;6.918;2023-06-19T09:23:22;32.60;49.00
10451;DHT22;5273;51.290;6.918;2023-06-19T09:25:50;32.70;49.40
10451;DHT22;5273;51.290;6.918;2023-06-19T09:28:19;33.20;48.10
10451;DHT22;5273;51.290;6.918;2023-06-19T09:30:53;33.80;46.60
10451;DHT22;5273;51.290;6.918;2023-06-19T09:33:20;34.50;45.30
10451;DHT22;5273;51.290;6.918;2023-06-19T09:35:48;34.80;44.20
10451;DHT22;5273;51.290;6.918;2023-06-19T09:38:16;35.30;44.00
10451;DHT22;5273;51.290;6.918;2023-06-19T09:40:45;35.70;42.70
10451;DHT22;5273;51.290;6.918;2023-06-19T09:43:16;35.90;41.90
10451;DHT22;5273;51.290;6.918;2023-06-19T09:45:47;35.60;42.10
10451;DHT22;5273;51.290;6.918;2023-06-19T09:48:18;35.50;42.90
10451;DHT22;5273;51.290;6.918;2023-06-19T09:50:47;35.40;41.90
10451;DHT22;5273;51.290;6.918;2023-06-19T09:53:15;35.50;41.40
10451;DHT22;5273;51.290;6.918;2023-06-19T09:55:42;35.70;41.30
10451;DHT22;5273;51.290;6.918;2023-06-19T09:58:11;36.30;40.40
10451;DHT22;5273;51.290;6.918;2023-06-19T10:00:37;36.80;38.60
10451;DHT22;5273;51.290;6.918;2023-06-19T10:03:11;37.30;38.30
10451;DHT22;5273;51.290;6.918;2023-06-19T10:05:39;37.50;36.50
10451;DHT22;5273;51.290;6.918;2023-06-19T10:08:06;37.60;36.60
10451;DHT22;5273;51.290;6.918;2023-06-19T10:10:34;37.90;36.60
10451;DHT22;5273;51.290;6.918;2023-06-19T10:13:13;38.10;35.40
10451;DHT22;5273;51.290;6.918;2023-06-19T10:15:41;38.20;35.30
10451;DHT22;5273;51.290;6.918;2023-06-19T10:18:13;38.50;35.40
10451;DHT22;5273;51.290;6.918;2023-06-19T10:20:42;38.70;34.80
10451;DHT22;5273;51.290;6.918;2023-06-19T10:23:11;38.50;35.00
10451;DHT22;5273;51.290;6.918;2023-06-19T10:25:40;38.40;36.20
10451;DHT22;5273;51.290;6.918;2023-06-19T10:28:18;38.80;35.60
10451;DHT22;5273;51.290;6.918;2023-06-19T10:30:45;39.10;34.50
10451;DHT22;5273;51.290;6.918;2023-06-19T10:33:17;39.30;33.50
10451;DHT22;5273;51.290;6.918;2023-06-19T10:35:44;39.40;32.70
10451;DHT22;5273;51.290;6.918;2023-06-19T10:38:14;39.70;31.90
10451;DHT22;5273;51.290;6.918;2023-06-19T10:40:41;40.00;31.80
10451;DHT22;5273;51.290;6.918;2023-06-19T10:43:08;39.90;30.70
10451;DHT22;5273;51.290;6.918;2023-06-19T10:45:36;39.80;31.30
10451;DHT22;5273;51.290;6.918;2023-06-19T10:48:04;39.70;31.40
10451;DHT22;5273;51.290;6.918;2023-06-19T10:50:34;39.50;31.20
10451;DHT22;5273;51.290;6.918;2023-06-19T10:53:05;39.20;31.80
10451;DHT22;5273;51.290;6.918;2023-06-19T10:55:33;38.60;32.10
10451;DHT22;5273;51.290;6.918;2023-06-19T10:58:00;37.90;32.90
10451;DHT22;5273;51.290;6.918;2023-06-19T11:00:28;37.20;33.50
10451;DHT22;5273;51.290;6.918;2023-06-19T11:02:57;36.50;33.90
10451;DHT22;5273;51.290;6.918;2023-06-19T11:05:25;35.70;36.30
10451;DHT22;5273;51.290;6.918;2023-06-19T11:07:54;35.20;37.20
10451;DHT22;5273;51.290;6.918;2023-06-19T11:10:22;34.90;37.80
10451;DHT22;5273;51.290;6.918;2023-06-19T11:12:49;34.70;38.50
10451;DHT22;5273;51.290;6.918;2023-06-19T11:15:16;34.60;37.50
10451;DHT22;5273;51.290;6.918;2023-06-19T11:17:43;34.40;38.40
10451;DHT22;5273;51.290;6.918;2023-06-19T11:20:12;34.20;39.80
10451;DHT22;5273;51.290;6.918;2023-06-19T11:22:41;33.90;39.20
10451;DHT22;5273;51.290;6.918;2023-06-19T11:25:09;33.60;40.00
10451;DHT22;5273;51.290;6.918;2023-06-19T11:27:39;33.30;40.10
10451;DHT22;5273;51.290;6.918;2023-06-19T11:30:07;33.10;39.80
10451;DHT22;5273;51.290;6.918;2023-06-19T11:32:36;33.10;40.50
10451;DHT22;5273;51.290;6.918;2023-06-19T11:35:08;33.00;39.60
10451;DHT22;5273;51.290;6.918;2023-06-19T11:37:39;33.00;40.60
10451;DHT22;5273;51.290;6.918;2023-06-19T11:40:07;33.00;41.00
10451;DHT22;5273;51.290;6.918;2023-06-19T11:42:47;33.00;39.80
10451;DHT22;5273;51.290;6.918;2023-06-19T11:45:14;32.90;41.30
10451;DHT22;5273;51.290;6.918;2023-06-19T11:47:43;32.90;40.40
10451;DHT22;5273;51.290;6.918;2023-06-19T11:50:10;32.90;40.40
10451;DHT22;5273;51.290;6.918;2023-06-19T11:52:39;32.80;41.00
10451;DHT22;5273;51.290;6.918;2023-06-19T11:55:07;32.60;40.80
10451;DHT22;5273;51.290;6.918;2023-06-19T11:57:34;32.50;41.00
10451;DHT22;5273;51.290;6.918;2023-06-19T12:00:01;32.40;41.00
10451;DHT22;5273;51.290;6.918;2023-06-19T12:02:32;32.30;41.30
10451;DHT22;5273;51.290;6.918;2023-06-19T12:04:59;32.10;40.90
10451;DHT22;5273;51.290;6.918;2023-06-19T12:07:26;32.10;41.60
10451;DHT22;5273;51.290;6.918;2023-06-19T12:09:54;32.20;41.30
10451;DHT22;5273;51.290;6.918;2023-06-19T12:12:21;32.20;41.20
10451;DHT22;5273;51.290;6.918;2023-06-19T12:14:48;32.20;41.60
10451;DHT22;5273;51.290;6.918;2023-06-19T12:17:14;32.20;40.70
10451;DHT22;5273;51.290;6.918;2023-06-19T12:19:41;32.00;40.50
10451;DHT22;5273;51.290;6.918;2023-06-19T12:22:08;32.00;40.80
10451;DHT22;5273;51.290;6.918;2023-06-19T12:24:35;32.00;40.80
10451;DHT22;5273;51.290;6.918;2023-06-19T12:27:04;32.00;41.50
10451;DHT22;5273;51.290;6.918;2023-06-19T12:29:30;32.10;41.60
10451;DHT22;5273;51.290;6.918;2023-06-19T12:32:00;32.00;40.90
10451;DHT22;5273;51.290;6.918;2023-06-19T12:34:27;32.00;41.30
10451;DHT22;5273;51.290;6.918;2023-06-19T12:36:54;32.00;40.50
10451;DHT22;5273;51.290;6.918;2023-06-19T12:39:22;32.10;40.10
10451;DHT22;5273;51.290;6.918;2023-06-19T12:41:50;32.20;40.80
10451;DHT22;5273;51.290;6.918;2023-06-19T12:44:19;32.20;40.10
10451;DHT22;5273;51.290;6.918;2023-06-19T12:46:46;32.10;40.10
10451;DHT22;5273;51.290;6.918;2023-06-19T12:49:13;32.00;41.10
10451;DHT22;5273;51.290;6.918;2023-06-19T12:51:40;32.00;41.20
10451;DHT22;5273;51.290;6.918;2023-06-19T12:54:07;31.90;40.80
10451;DHT22;5273;51.290;6.918;2023-06-19T12:56:33;31.80;40.70
10451;DHT22;5273;51.290;6.918;2023-06-19T12:59:00;31.80;40.30
10451;DHT22;5273;51.290;6.918;2023-06-19T13:01:28;31.80;40.10
10451;DHT22;5273;51.290;6.918;2023-06-19T13:03:55;31.80;40.60
10451;DHT22;5273;51.290;6.918;2023-06-19T13:06:22;32.00;40.10
10451;DHT22;5273;51.290;6.918;2023-06-19T13:08:49;32.00;39.70
10451;DHT22;5273;51.290;6.918;2023-06-19T13:11:16;32.20;41.70
10451;DHT22;5273;51.290;6.918;2023-06-19T13:13:43;32.30;41.00
10451;DHT22;5273;51.290;6.918;2023-06-19T13:16:10;32.30;40.00
10451;DHT22;5273;51.290;6.918;2023-06-19T13:18:38;32.30;41.00
10451;DHT22;5273;51.290;6.918;2023-06-19T13:21:05;32.30;41.30
10451;DHT22;5273;51.290;6.918;2023-06-19T13:23:31;32.30;40.00
10451;DHT22;5273;51.290;6.918;2023-06-19T13:25:58;32.20;40.20
10451;DHT22;5273;51.290;6.918;2023-06-19T13:28:25;32.30;39.70
10451;DHT22;5273;51.290;6.918;2023-06-19T13:30:52;32.30;39.00
10451;DHT22;5273;51.290;6.918;2023-06-19T13:33:19;32.20;39.40
10451;DHT22;5273;51.290;6.918;2023-06-19T13:35:48;32.20;40.10
10451;DHT22;5273;51.290;6.918;2023-06-19T13:38:14;32.00;40.30
10451;DHT22;5273;51.290;6.918;2023-06-19T13:40:42;32.00;41.00
10451;DHT22;5273;51.290;6.918;2023-06-19T13:43:09;31.90;40.60
10451;DHT22;5273;51.290;6.918;2023-06-19T13:45:36;31.90;40.80
10451;DHT22;5273;51.290;6.918;2023-06-19T13:48:04;31.90;39.10
10451;DHT22;5273;51.290;6.918;2023-06-19T13:50:31;32.00;39.40
10451;DHT22;5273;51.290;6.918;2023-06-19T13:52:59;32.00;39.40
10451;DHT22;5273;51.290;6.918;2023-06-19T13:55:26;32.10;38.00
10451;DHT22;5273;51.290;6.918;2023-06-19T13:57:53;32.20;39.00
10451;DHT22;5273;51.290;6.918;2023-06-19T14:00:20;32.20;40.20
10451;DHT22;5273;51.290;6.918;2023-06-19T14:02:47;32.20;39.60
10451;DHT22;5273;51.290;6.918;2023-06-19T14:05:15;32.20;38.20
10451;DHT22;5273;51.290;6.918;2023-06-19T14:07:42;32.10;38.60
10451;DHT22;5273;51.290;6.918;2023-06-19T14:10:11;32.10;38.10
10451;DHT22;5273;51.290;6.918;2023-06-19T14:12:38;32.00;39.30
10451;DHT22;5273;51.290;6.918;2023-06-19T14:15:06;32.00;39.60
10451;DHT22;5273;51.290;6.918;2023-06-19T14:17:33;32.00;39.90
10451;DHT22;5273;51.290;6.918;2023-06-19T14:20:00;32.00;40.70
10451;DHT22;5273;51.290;6.918;2023-06-19T14:22:30;32.00;39.70
10451;DHT22;5273;51.290;6.918;2023-06-19T14:24:56;31.90;39.90
10451;DHT22;5273;51.290;6.918;2023-06-19T14:27:26;31.90;39.80
10451;DHT22;5273;51.290;6.918;2023-06-19T14:29:53;31.80;40.20
10451;DHT22;5273;51.290;6.918;2023-06-19T14:32:20;31.70;42.00
10451;DHT22;5273;51.290;6.918;2023-06-19T14:34:47;31.60;40.40
10451;DHT22;5273;51.290;6.918;2023-06-19T14:37:14;31.40;42.10
10451;DHT22;5273;51.290;6.918;2023-06-19T14:39:41;31.30;41.00
10451;DHT22;5273;51.290;6.918;2023-06-19T14:42:08;31.30;41.00
10451;DHT22;5273;51.290;6.918;2023-06-19T14:44:36;31.20;40.60
10451;DHT22;5273;51.290;6.918;2023-06-19T14:47:04;31.20;41.80
10451;DHT22;5273;51.290;6.918;2023-06-19T14:49:30;31.20;41.00
10451;DHT22;5273;51.290;6.918;2023-06-19T14:51:57;31.20;40.00
10451;DHT22;5273;51.290;6.918;2023-06-19T14:54:24;31.20;38.50
10451;DHT22;5273;51.290;6.918;2023-06-19T14:56:51;31.20;38.10
10451;DHT22;5273;51.290;6.918;2023-06-19T14:59:19;31.20;39.30
10451;DHT22;5273;51.290;6.918;2023-06-19T15:01:47;31.20;38.90
10451;DHT22;5273;51.290;6.918;2023-06-19T15:04:14;31.20;38.90
10451;DHT22;5273;51.290;6.918;2023-06-19T15:06:40;31.30;39.40
10451;DHT22;5273;51.290;6.918;2023-06-19T15:09:07;31.30;39.60
10451;DHT22;5273;51.290;6.918;2023-06-19T15:11:35;31.20;39.70
10451;DHT22;5273;51.290;6.918;2023-06-19T15:14:01;31.10;39.90
10451;DHT22;5273;51.290;6.918;2023-06-19T15:16:28;31.00;40.20
10451;DHT22;5273;51.290;6.918;2023-06-19T15:18:56;30.90;39.30
10451;DHT22;5273;51.290;6.918;2023-06-19T15:21:23;30.80;39.10
10451;DHT22;5273;51.290;6.918;2023-06-19T15:23:53;30.80;39.40
10451;DHT22;5273;51.290;6.918;2023-06-19T15:26:20;30.70;39.00
10451;DHT22;5273;51.290;6.918;2023-06-19T15:28:47;30.60;39.20
10451;DHT22;5273;51.290;6.918;2023-06-19T15:31:14;30.70;41.60
10451;DHT22;5273;51.290;6.918;2023-06-19T15:33:42;30.60;40.60
10451;DHT22;5273;51.290;6.918;2023-06-19T15:36:10;30.60;39.90
10451;DHT22;5273;51.290;6.918;2023-06-19T15:38:37;30.60;40.60
10451;DHT22;5273;51.290;6.918;2023-06-19T15:41:03;30.60;40.50
10451;DHT22;5273;51.290;6.918;2023-06-19T15:43:30;30.60;40.60
10451;DHT22;5273;51.290;6.918;2023-06-19T15:45:57;30.60;40.00
10451;DHT22;5273;51.290;6.918;2023-06-19T15:48:24;30.60;39.30